createdAt,value
2022-10-04T00:01:13.359Z,99105.40
2022-10-04T00:04:06.324Z,99102.20
2022-10-04T00:06:37.478Z,99102.00
2022-10-04T00:09:14.215Z,99108.60
2022-10-04T00:11:48.183Z,99104.00
2022-10-04T00:14:36.463Z,99102.40
2022-10-04T00:17:27.872Z,99100.60
2022-10-04T00:19:56.366Z,99096.00
2022-10-04T00:22:34.106Z,99095.40
2022-10-04T00:25:10.422Z,99088.60
2022-10-04T00:27:40.436Z,99091.40
2022-10-04T00:30:23.274Z,99088.80
2022-10-04T00:33:09.106Z,99084.60
2022-10-04T00:35:36.784Z,99079.40
2022-10-04T00:38:07.065Z,99078.60
2022-10-04T00:41:06.567Z,99078.40
2022-10-04T00:43:48.333Z,99081.60
2022-10-04T00:46:26.139Z,99082.20
2022-10-04T00:49:03.176Z,99085.80
2022-10-04T00:51:59.573Z,99086.00
2022-10-04T00:54:38.671Z,99086.20
2022-10-04T00:57:14.418Z,99084.80
2022-10-04T00:59:53.500Z,99080.40
2022-10-04T01:02:27.885Z,99082.60
2022-10-04T01:05:26.515Z,99084.80
2022-10-04T01:08:03.354Z,99083.60
2022-10-04T01:11:03.173Z,99078.80
2022-10-04T01:14:00.792Z,99081.00
2022-10-04T01:16:39.239Z,99082.20
2022-10-04T01:19:21.930Z,99077.00
2022-10-04T01:22:07.672Z,99069.20
2022-10-04T01:24:44.751Z,99072.60
2022-10-04T01:27:43.626Z,99072.60
2022-10-04T01:30:16.782Z,99065.20
2022-10-04T01:32:45.498Z,99069.00
2022-10-04T01:35:15.700Z,99069.20
2022-10-04T01:37:43.945Z,99067.00
2022-10-04T01:40:12.099Z,99070.20
2022-10-04T01:42:55.914Z,99067.80
2022-10-04T01:45:39.910Z,99065.40
2022-10-04T01:48:15.523Z,99068.20
2022-10-04T01:51:05.304Z,99070.80
2022-10-04T01:53:54.569Z,99067.20
2022-10-04T01:56:30.320Z,99062.80
2022-10-04T01:59:04.539Z,99059.60
2022-10-04T02:01:41.607Z,99060.20
2022-10-04T02:04:22.428Z,99063.20
2022-10-04T02:06:56.654Z,99067.40
2022-10-04T02:09:31.701Z,99065.60
2022-10-04T02:12:01.240Z,99067.20
2022-10-04T02:14:34.425Z,99067.00
2022-10-04T02:17:09.200Z,99065.20
2022-10-04T02:19:42.567Z,99066.20
2022-10-04T02:22:11.811Z,99060.60
2022-10-04T02:24:45.583Z,99066.80
2022-10-04T02:27:14.746Z,99062.60
2022-10-04T02:29:42.846Z,99061.20
2022-10-04T02:32:31.764Z,99070.00
2022-10-04T02:34:59.490Z,99067.60
2022-10-04T02:37:30.101Z,99069.40
2022-10-04T02:40:30.498Z,99066.60
2022-10-04T02:43:06.881Z,99065.00
2022-10-04T02:45:55.455Z,99066.80
2022-10-04T02:48:53.294Z,99076.60
2022-10-04T02:51:42.564Z,99080.60
2022-10-04T02:54:22.394Z,99082.60
2022-10-04T02:56:55.810Z,99081.40
2022-10-04T02:59:24.469Z,99085.40
2022-10-04T03:02:00.402Z,99083.40
2022-10-04T03:04:37.467Z,99087.20
2022-10-04T03:07:08.834Z,99089.80
2022-10-04T03:09:39.937Z,99091.80
2022-10-04T03:12:12.997Z,99091.20
2022-10-04T03:14:40.640Z,99091.00
2022-10-04T03:17:09.097Z,99092.80
2022-10-04T03:19:38.668Z,99087.40
2022-10-04T03:22:12.285Z,99092.40
2022-10-04T03:24:51.563Z,99081.80
2022-10-04T03:27:31.436Z,99090.40
2022-10-04T03:29:59.722Z,99091.40
2022-10-04T03:32:30.713Z,99085.80
2022-10-04T03:35:03.687Z,99086.80
2022-10-04T03:37:37.276Z,99080.60
2022-10-04T03:40:10.152Z,99082.20
2022-10-04T03:42:39.459Z,99084.80
2022-10-04T03:45:15.613Z,99078.80
2022-10-04T03:47:48.630Z,99083.80
2022-10-04T03:50:29.314Z,99089.20
2022-10-04T03:53:04.351Z,99088.80
2022-10-04T03:55:44.214Z,99079.80
2022-10-04T03:58:17.925Z,99087.40
2022-10-04T04:01:13.889Z,99083.40
2022-10-04T04:04:13.261Z,99083.40
2022-10-04T04:07:01.422Z,99082.00
2022-10-04T04:09:41.451Z,99081.00
2022-10-04T04:12:24.127Z,99077.40
2022-10-04T04:14:53.806Z,99082.80
2022-10-04T04:17:27.277Z,99088.20
2022-10-04T04:20:03.577Z,99092.80
2022-10-04T04:22:37.305Z,99092.00
2022-10-04T04:25:14.065Z,99092.60
2022-10-04T04:27:46.768Z,99090.80
2022-10-04T04:30:18.340Z,99096.60
2022-10-04T04:32:54.758Z,99093.40
2022-10-04T04:35:31.829Z,99099.60
2022-10-04T04:38:17.842Z,99105.00
2022-10-04T04:40:46.273Z,99105.40
2022-10-04T04:43:27.719Z,99101.20
2022-10-04T04:46:22.107Z,99100.20
2022-10-04T04:48:54.847Z,99103.40
2022-10-04T04:51:24.980Z,99107.80
2022-10-04T04:53:55.565Z,99109.20
2022-10-04T04:56:28.693Z,99118.80
2022-10-04T04:59:02.445Z,99121.40
2022-10-04T05:01:43.850Z,99129.00
2022-10-04T05:04:14.215Z,99134.80
2022-10-04T05:06:46.315Z,99138.20
2022-10-04T05:09:36.143Z,99137.40
2022-10-04T05:12:23.161Z,99138.80
2022-10-04T05:14:54.441Z,99141.40
2022-10-04T05:17:27.692Z,99134.80
2022-10-04T05:20:01.729Z,99144.20
2022-10-04T05:22:32.325Z,99147.80
2022-10-04T05:25:07.600Z,99149.20
2022-10-04T05:27:44.655Z,99151.20
2022-10-04T05:30:40.817Z,99154.40
2022-10-04T05:33:14.569Z,99159.60
2022-10-04T05:36:11.982Z,99163.40
2022-10-04T05:39:13.145Z,99164.40
2022-10-04T05:42:02.598Z,99167.40
2022-10-04T05:44:44.865Z,99167.80
2022-10-04T05:47:14.534Z,99177.20
2022-10-04T05:49:48.827Z,99177.40
2022-10-04T05:52:36.084Z,99182.80
2022-10-04T05:55:13.147Z,99180.20
2022-10-04T05:57:55.944Z,99178.80
2022-10-04T06:01:10.568Z,99178.80
2022-10-04T06:03:47.265Z,99183.20
2022-10-04T06:06:39.237Z,99181.20
2022-10-04T06:09:19.694Z,99193.20
2022-10-04T06:12:10.669Z,99194.20
2022-10-04T06:15:24.960Z,99193.00
2022-10-04T06:18:08.794Z,99193.20
2022-10-04T06:21:03.139Z,99200.40
2022-10-04T06:23:37.159Z,99200.80
2022-10-04T06:26:18.434Z,99199.20
2022-10-04T06:28:58.127Z,99209.80
2022-10-04T06:32:20.792Z,99208.80
2022-10-04T06:35:47.555Z,99211.00
2022-10-04T06:38:33.437Z,99220.20
2022-10-04T06:41:20.070Z,99220.80
2022-10-04T06:44:08.888Z,99227.40
2022-10-04T06:47:30.949Z,99231.40
2022-10-04T06:50:20.071Z,99234.60
2022-10-04T06:53:15.683Z,99238.00
2022-10-04T06:55:57.399Z,99241.40
2022-10-04T06:58:33.170Z,99244.60
2022-10-04T07:01:31.632Z,99252.80
2022-10-04T07:04:24.447Z,99258.80
2022-10-04T07:07:35.273Z,99253.40
2022-10-04T07:10:35.382Z,99256.80
2022-10-04T07:13:09.668Z,99265.00
2022-10-04T07:16:07.720Z,99272.00
2022-10-04T07:19:04.384Z,99270.00
2022-10-04T07:22:08.283Z,99275.60
2022-10-04T07:25:14.841Z,99272.40
2022-10-04T07:28:26.595Z,99278.20
2022-10-04T07:31:14.423Z,99281.40
2022-10-04T07:33:49.620Z,99281.20
2022-10-04T07:36:31.451Z,99282.40
2022-10-04T07:39:14.890Z,99279.40
2022-10-04T07:41:53.524Z,99285.20
2022-10-04T07:44:34.114Z,99283.20
2022-10-04T07:47:24.358Z,99289.00
2022-10-04T07:49:54.458Z,99292.00
2022-10-04T07:52:22.526Z,99290.20
2022-10-04T07:55:18.617Z,99286.00
2022-10-04T07:58:07.178Z,99288.40
2022-10-04T08:01:32.210Z,99285.20
2022-10-04T08:04:30.355Z,99295.80
2022-10-04T08:07:01.608Z,99293.60
2022-10-04T08:09:53.689Z,99305.00
2022-10-04T08:12:50.117Z,99310.20
2022-10-04T08:15:40.329Z,99307.60
2022-10-04T08:18:39.186Z,99315.80
2022-10-04T08:21:13.658Z,99320.60
2022-10-04T08:24:14.593Z,99326.60
2022-10-04T08:26:57.585Z,99329.20
2022-10-04T08:30:17.366Z,99327.60
2022-10-04T08:33:32.226Z,99330.60
2022-10-04T08:36:23.266Z,99342.00
2022-10-04T08:38:58.509Z,99340.00
2022-10-04T08:42:10.059Z,99343.00
2022-10-04T08:45:13.326Z,99338.00
2022-10-04T08:48:40.389Z,99338.00
2022-10-04T08:51:35.256Z,99341.40
2022-10-04T08:54:21.365Z,99343.40
2022-10-04T08:57:16.523Z,99347.40
2022-10-04T09:00:06.677Z,99348.00
2022-10-04T09:02:55.879Z,99349.40
2022-10-04T09:06:04.726Z,99359.60
2022-10-04T09:09:01.317Z,99355.80
2022-10-04T09:11:51.417Z,99364.80
2022-10-04T09:15:02.044Z,99359.60
2022-10-04T09:17:55.543Z,99357.80
2022-10-04T09:20:45.057Z,99366.60
2022-10-04T09:23:31.059Z,99361.80
2022-10-04T09:26:14.259Z,99369.80
2022-10-04T09:29:17.219Z,99368.40
2022-10-04T09:31:59.689Z,99370.60
2022-10-04T09:35:18.989Z,99368.00
2022-10-04T09:38:19.840Z,99372.60
2022-10-04T09:41:14.848Z,99374.20
2022-10-04T09:44:16.837Z,99376.40
2022-10-04T09:47:18.688Z,99381.60
2022-10-04T09:50:35.679Z,99384.00
2022-10-04T09:53:37.756Z,99389.60
2022-10-04T09:56:26.975Z,99393.00
2022-10-04T09:59:27.268Z,99395.20
2022-10-04T10:02:57.294Z,99398.60
2022-10-04T10:06:12.338Z,99402.40
2022-10-04T10:08:42.924Z,99400.20
2022-10-04T10:12:01.936Z,99400.40
2022-10-04T10:14:54.447Z,99400.60
2022-10-04T10:17:57.077Z,99411.80
2022-10-04T10:20:52.709Z,99406.20
2022-10-04T10:23:54.636Z,99408.60
2022-10-04T10:27:07.621Z,99412.40
2022-10-04T10:29:59.432Z,99412.60
2022-10-04T10:33:06.023Z,99418.40
2022-10-04T10:36:02.037Z,99411.40
2022-10-04T10:39:11.989Z,99409.20
2022-10-04T10:42:00.536Z,99414.80
2022-10-04T10:45:01.988Z,99415.40
2022-10-04T10:48:00.717Z,99420.40
2022-10-04T10:51:00.501Z,99415.20
2022-10-04T10:53:59.219Z,99421.60
2022-10-04T10:56:32.577Z,99416.20
2022-10-04T10:59:56.390Z,99421.20
2022-10-04T11:02:49.737Z,99426.40
2022-10-04T11:06:07.388Z,99424.20
2022-10-04T11:09:15.737Z,99424.00
2022-10-04T11:12:40.576Z,99419.80
2022-10-04T11:15:39.404Z,99429.00
2022-10-04T11:18:50.557Z,99426.00
2022-10-04T11:21:54.297Z,99429.00
2022-10-04T11:25:11.696Z,99431.80
2022-10-04T11:28:22.546Z,99429.80
2022-10-04T11:31:01.488Z,99430.20
2022-10-04T11:34:16.358Z,99429.40
2022-10-04T11:37:22.946Z,99431.00
2022-10-04T11:40:13.930Z,99435.80
2022-10-04T11:43:22.018Z,99433.20
2022-10-04T11:46:36.036Z,99435.80
2022-10-04T11:49:35.971Z,99439.60
2022-10-04T11:53:03.309Z,99442.20
2022-10-04T11:56:04.444Z,99440.60
2022-10-04T11:58:53.534Z,99438.20
2022-10-04T12:01:51.970Z,99446.60
2022-10-04T12:04:47.629Z,99448.20
2022-10-04T12:07:43.593Z,99445.00
2022-10-04T12:10:30.264Z,99441.20
2022-10-04T12:13:34.632Z,99444.60
2022-10-04T12:16:37.371Z,99438.80
2022-10-04T12:19:51.264Z,99439.00
2022-10-04T12:22:46.992Z,99431.80
2022-10-04T12:25:42.499Z,99430.60
2022-10-04T12:28:48.333Z,99431.40
2022-10-04T12:31:35.797Z,99433.20
2022-10-04T12:34:15.821Z,99432.80
2022-10-04T12:37:26.241Z,99433.80
2022-10-04T12:40:19.565Z,99439.20
2022-10-04T12:43:12.676Z,99432.80
2022-10-04T12:46:45.023Z,99437.20
2022-10-04T12:49:31.060Z,99438.40
2022-10-04T12:52:15.338Z,99438.20
2022-10-04T12:55:06.841Z,99449.80
2022-10-04T12:57:47.369Z,99449.00
2022-10-04T13:00:32.187Z,99453.80
2022-10-04T13:03:35.478Z,99450.80
2022-10-04T13:06:10.769Z,99451.80
2022-10-04T13:09:11.925Z,99449.80
2022-10-04T13:12:14.060Z,99456.40
2022-10-04T13:15:09.321Z,99458.20
2022-10-04T13:18:14.110Z,99454.00
2022-10-04T13:21:08.413Z,99459.00
2022-10-04T13:23:59.618Z,99462.20
2022-10-04T13:26:38.994Z,99465.60
2022-10-04T13:29:28.583Z,99459.00
2022-10-04T13:32:18.950Z,99461.60
2022-10-04T13:35:07.977Z,99456.60
2022-10-04T13:37:56.140Z,99462.00
2022-10-04T13:40:45.017Z,99458.40
2022-10-04T13:43:26.080Z,99466.40
2022-10-04T13:46:29.711Z,99463.60
2022-10-04T13:49:19.636Z,99463.00
2022-10-04T13:52:33.481Z,99463.60
2022-10-04T13:55:35.539Z,99462.40
2022-10-04T13:58:42.690Z,99470.00
2022-10-04T14:01:45.805Z,99467.40
2022-10-04T14:04:38.574Z,99458.00
2022-10-04T14:08:01.588Z,99454.40
2022-10-04T14:11:13.585Z,99458.20
2022-10-04T14:14:14.635Z,99453.60
2022-10-04T14:17:06.907Z,99456.20
2022-10-04T14:20:25.570Z,99461.80
2022-10-04T14:23:22.302Z,99459.60
2022-10-04T14:26:07.409Z,99460.40
2022-10-04T14:28:46.721Z,99460.40
2022-10-04T14:32:29.781Z,99457.80
2022-10-04T14:35:23.823Z,99462.60
2022-10-04T14:38:36.360Z,99467.40
2022-10-04T14:41:25.244Z,99468.40
2022-10-04T14:44:52.092Z,99468.80
2022-10-04T14:48:15.066Z,99477.40
2022-10-04T14:51:14.305Z,99476.20
2022-10-04T14:54:14.741Z,99476.40
2022-10-04T14:57:12.359Z,99478.40
2022-10-04T15:00:06.709Z,99486.40
2022-10-04T15:02:54.730Z,99480.80
2022-10-04T15:05:38.926Z,99482.20
2022-10-04T15:08:21.801Z,99486.80
2022-10-04T15:10:58.680Z,99484.20
2022-10-04T15:13:55.757Z,99485.60
2022-10-04T15:16:54.115Z,99484.60
2022-10-04T15:19:21.819Z,99487.20
2022-10-04T15:21:55.284Z,99490.80
2022-10-04T15:24:31.189Z,99494.40
2022-10-04T15:27:17.058Z,99494.40
2022-10-04T15:30:21.846Z,99502.80
2022-10-04T15:33:09.269Z,99509.00
2022-10-04T15:35:57.055Z,99506.00
2022-10-04T15:38:55.329Z,99503.60
2022-10-04T15:42:02.742Z,99510.20
2022-10-04T15:45:17.679Z,99511.60
2022-10-04T15:48:23.314Z,99518.20
2022-10-04T15:50:59.180Z,99522.00
2022-10-04T15:54:06.984Z,99526.80
2022-10-04T15:56:51.364Z,99529.20
2022-10-04T16:00:13.348Z,99528.40
2022-10-04T16:03:17.997Z,99528.60
2022-10-04T16:06:27.804Z,99534.60
2022-10-04T16:09:18.359Z,99531.80
2022-10-04T16:12:29.471Z,99542.40
2022-10-04T16:15:22.893Z,99536.00
2022-10-04T16:18:15.197Z,99541.80
2022-10-04T16:21:41.327Z,99545.00
2022-10-04T16:24:17.869Z,99550.20
2022-10-04T16:26:50.972Z,99551.80
2022-10-04T16:30:25.554Z,99554.20
2022-10-04T16:32:58.999Z,99557.00
2022-10-04T16:35:39.306Z,99556.80
2022-10-04T16:38:12.933Z,99556.00
2022-10-04T16:40:52.734Z,99556.40
2022-10-04T16:43:20.396Z,99558.60
2022-10-04T16:46:13.767Z,99562.00
2022-10-04T16:48:41.356Z,99571.80
2022-10-04T16:51:17.932Z,99571.00
2022-10-04T16:54:32.979Z,99569.40
2022-10-04T16:57:00.910Z,99563.80
2022-10-04T16:59:37.291Z,99567.80
2022-10-04T17:02:42.075Z,99570.40
2022-10-04T17:05:30.116Z,99571.60
2022-10-04T17:08:24.819Z,99574.60
2022-10-04T17:11:33.744Z,99572.40
2022-10-04T17:14:39.929Z,99577.40
2022-10-04T17:17:29.917Z,99584.60
2022-10-04T17:20:39.656Z,99590.60
2022-10-04T17:23:31.185Z,99595.00
2022-10-04T17:26:21.849Z,99598.60
2022-10-04T17:29:00.732Z,99600.20
2022-10-04T17:31:56.754Z,99599.20
2022-10-04T17:35:09.072Z,99600.20
2022-10-04T17:37:50.897Z,99591.40
2022-10-04T17:40:41.201Z,99601.60
2022-10-04T17:43:30.085Z,99597.60
2022-10-04T17:46:27.914Z,99600.00
2022-10-04T17:49:23.083Z,99599.80
2022-10-04T17:52:14.247Z,99604.00
2022-10-04T17:55:10.726Z,99609.40
2022-10-04T17:57:50.448Z,99614.60
2022-10-04T18:00:23.831Z,99608.00
2022-10-04T18:03:25.285Z,99609.00
2022-10-04T18:05:59.227Z,99611.80
2022-10-04T18:08:40.299Z,99617.80
2022-10-04T18:11:41.729Z,99621.40
2022-10-04T18:14:35.227Z,99624.60
2022-10-04T18:17:12.021Z,99628.00
2022-10-04T18:19:54.801Z,99631.80
2022-10-04T18:22:26.526Z,99630.60
2022-10-04T18:25:26.809Z,99633.20
2022-10-04T18:28:20.756Z,99636.00
2022-10-04T18:31:00.238Z,99637.20
2022-10-04T18:33:49.922Z,99636.80
2022-10-04T18:36:27.500Z,99641.60
2022-10-04T18:39:13.506Z,99643.00
2022-10-04T18:41:55.356Z,99641.20
2022-10-04T18:45:01.268Z,99641.80
2022-10-04T18:47:38.142Z,99642.00
2022-10-04T18:50:24.497Z,99643.40
2022-10-04T18:53:19.718Z,99642.40
2022-10-04T18:55:59.968Z,99641.20
2022-10-04T18:59:18.245Z,99647.80
2022-10-04T19:02:22.589Z,99651.20
2022-10-04T19:05:15.342Z,99656.20
2022-10-04T19:08:39.090Z,99654.00
2022-10-04T19:11:19.098Z,99656.00
2022-10-04T19:14:22.253Z,99658.20
2022-10-04T19:17:10.192Z,99661.20
2022-10-04T19:20:25.537Z,99660.40
2022-10-04T19:23:35.049Z,99662.60
2022-10-04T19:26:35.168Z,99669.60
2022-10-04T19:29:39.365Z,99670.60
2022-10-04T19:32:42.093Z,99676.80
2022-10-04T19:35:50.173Z,99682.60
2022-10-04T19:38:39.404Z,99683.60
2022-10-04T19:41:25.662Z,99682.00
2022-10-04T19:44:30.257Z,99680.40
2022-10-04T19:47:23.433Z,99687.80
2022-10-04T19:50:09.465Z,99690.00
2022-10-04T19:53:02.032Z,99693.80
2022-10-04T19:55:49.763Z,99693.80
2022-10-04T19:58:39.865Z,99701.40
2022-10-04T20:01:23.952Z,99700.60
2022-10-04T20:04:11.656Z,99697.40
2022-10-04T20:06:49.798Z,99699.20
2022-10-04T20:09:47.891Z,99702.80
2022-10-04T20:12:32.901Z,99698.00
2022-10-04T20:15:27.871Z,99698.20
2022-10-04T20:17:56.552Z,99702.80
2022-10-04T20:20:39.217Z,99691.20
2022-10-04T20:23:08.783Z,99703.40
2022-10-04T20:25:49.323Z,99703.40
2022-10-04T20:28:26.030Z,99705.20
2022-10-04T20:31:00.833Z,99711.20
2022-10-04T20:33:34.322Z,99713.80
2022-10-04T20:36:29.466Z,99721.40
2022-10-04T20:39:01.475Z,99721.00
2022-10-04T20:41:29.047Z,99720.80
2022-10-04T20:43:57.812Z,99726.40
2022-10-04T20:46:28.277Z,99728.40
2022-10-04T20:48:56.038Z,99725.40
2022-10-04T20:51:34.688Z,99729.80
2022-10-04T20:54:03.564Z,99729.20
2022-10-04T20:56:33.523Z,99730.00
2022-10-04T20:59:04.415Z,99727.60
2022-10-04T21:01:44.080Z,99723.00
2022-10-04T21:04:30.841Z,99730.60
2022-10-04T21:07:07.848Z,99731.20
2022-10-04T21:09:37.764Z,99735.60
2022-10-04T21:12:26.173Z,99736.00
2022-10-04T21:15:18.990Z,99745.60
2022-10-04T21:18:03.414Z,99751.20
2022-10-04T21:20:51.979Z,99746.20
2022-10-04T21:23:34.929Z,99749.80
2022-10-04T21:26:25.386Z,99751.60
2022-10-04T21:28:57.089Z,99758.40
2022-10-04T21:31:25.411Z,99750.00
2022-10-04T21:33:53.012Z,99746.00
2022-10-04T21:36:20.612Z,99745.20
2022-10-04T21:38:48.481Z,99754.20
2022-10-04T21:41:16.072Z,99753.80
2022-10-04T21:43:43.670Z,99754.80
2022-10-04T21:46:11.255Z,99754.40
2022-10-04T21:48:38.990Z,99745.20
2022-10-04T21:51:06.535Z,99738.60
2022-10-04T21:53:34.588Z,99736.20
2022-10-04T21:56:03.376Z,99729.20
2022-10-04T21:58:30.998Z,99731.60
2022-10-04T22:00:58.672Z,99731.80
2022-10-04T22:03:26.493Z,99731.80
2022-10-04T22:05:54.143Z,99729.80
2022-10-04T22:08:21.724Z,99735.60
2022-10-04T22:10:49.298Z,99735.60
2022-10-04T22:13:17.640Z,99734.60
2022-10-04T22:15:45.213Z,99740.40
2022-10-04T22:18:12.997Z,99736.40
2022-10-04T22:20:40.604Z,99738.00
2022-10-04T22:23:21.174Z,99736.20
2022-10-04T22:25:49.039Z,99735.00
2022-10-04T22:28:29.215Z,99738.60
2022-10-04T22:30:57.328Z,99740.60
2022-10-04T22:33:36.208Z,99744.20
2022-10-04T22:36:27.104Z,99735.80
2022-10-04T22:39:06.960Z,99742.40
2022-10-04T22:41:38.061Z,99746.00
2022-10-04T22:44:18.754Z,99747.80
2022-10-04T22:46:52.128Z,99747.60
2022-10-04T22:49:33.961Z,99746.80
2022-10-04T22:52:12.966Z,99748.00
2022-10-04T22:54:45.899Z,99750.00
2022-10-04T22:57:16.485Z,99755.20
2022-10-04T22:59:52.659Z,99762.00
2022-10-04T23:02:26.490Z,99761.60
2022-10-04T23:04:59.542Z,99767.40
2022-10-04T23:07:27.180Z,99769.60
2022-10-04T23:09:54.908Z,99774.40
2022-10-04T23:12:22.482Z,99772.00
2022-10-04T23:14:50.106Z,99774.80
2022-10-04T23:17:26.562Z,99781.60
2022-10-04T23:20:03.987Z,99785.20
2022-10-04T23:22:31.609Z,99788.40
2022-10-04T23:24:59.219Z,99781.20
2022-10-04T23:27:26.900Z,99778.80
2022-10-04T23:30:20.031Z,99777.80
2022-10-04T23:32:56.830Z,99776.20
2022-10-04T23:35:32.758Z,99774.20
2022-10-04T23:38:06.988Z,99774.00
2022-10-04T23:40:34.720Z,99771.80
2022-10-04T23:43:06.357Z,99778.00
2022-10-04T23:45:35.372Z,99776.40
2022-10-04T23:48:03.106Z,99769.20
2022-10-04T23:50:35.862Z,99767.20
2022-10-04T23:53:11.206Z,99762.80
2022-10-04T23:55:42.587Z,99757.00
2022-10-04T23:58:17.349Z,99754.20
